SWA2360 KBNA-KPHL
Flight info
| Callsign | SWA2360 |
|---|---|
| Flight time | 1h 28m |
| Altitude | 37000 |
| Route | CHADM4 MUNNY TONIO Q34 GVE PAATS4 |
| Aircraft | B738/M-SDE2E3FGHIRWXY/LB1 |
Departure
| Time | 2026-05-03 22:15 |
|---|---|
| Airport | Nashville International Airport (KBNA) |
Arrival
| Time | 2026-05-03 23:44 |
|---|---|
| Airport | Philadelphia International Airport (KPHL) |
| Time | Latitude | Longitude | Altitude | Speed | Heading |
|---|---|---|---|---|---|
| 2026-05-03 21:45 | 36.12767 | -86.66972 | 568 ft | 0 kts | 40° |
| 2026-05-03 22:01 | 36.12762 | -86.66977 | 568 ft | 2 kts | 40° |
| 2026-05-03 22:01 | 36.12747 | -86.66993 | 566 ft | 3 kts | 40° |
| 2026-05-03 22:02 | 36.12731 | -86.67007 | 574 ft | 3 kts | 15° |
| 2026-05-03 22:02 | 36.12713 | -86.67009 | 573 ft | 3 kts | 342° |
| 2026-05-03 22:02 | 36.12696 | -86.66998 | 570 ft | 2 kts | 314° |
| 2026-05-03 22:02 | 36.12692 | -86.66994 | 570 ft | 0 kts | 310° |
| 2026-05-03 22:08 | 36.12705 | -86.67013 | 570 ft | 7 kts | 310° |
| 2026-05-03 22:08 | 36.12750 | -86.67078 | 568 ft | 12 kts | 310° |
| 2026-05-03 22:09 | 36.12802 | -86.67155 | 573 ft | 12 kts | 312° |
| 2026-05-03 22:09 | 36.12855 | -86.67224 | 568 ft | 9 kts | 312° |
| 2026-05-03 22:09 | 36.12839 | -86.67290 | 568 ft | 9 kts | 223° |
| 2026-05-03 22:10 | 36.12734 | -86.67412 | 573 ft | 12 kts | 224° |
| 2026-05-03 22:10 | 36.12664 | -86.67467 | 575 ft | 12 kts | 208° |
| 2026-05-03 22:10 | 36.12592 | -86.67519 | 575 ft | 12 kts | 218° |
| 2026-05-03 22:10 | 36.12538 | -86.67581 | 577 ft | 7 kts | 223° |
| 2026-05-03 22:11 | 36.12512 | -86.67610 | 579 ft | 5 kts | 223° |
| 2026-05-03 22:11 | 36.12489 | -86.67637 | 578 ft | 5 kts | 225° |
| 2026-05-03 22:11 | 36.12483 | -86.67645 | 582 ft | 2 kts | 225° |
| 2026-05-03 22:11 | 36.12463 | -86.67664 | 581 ft | 6 kts | 210° |
| 2026-05-03 22:12 | 36.12416 | -86.67685 | 578 ft | 8 kts | 198° |
| 2026-05-03 22:12 | 36.12365 | -86.67706 | 581 ft | 7 kts | 203° |
| 2026-05-03 22:12 | 36.12355 | -86.67754 | 578 ft | 6 kts | 281° |
| 2026-05-03 22:12 | 36.12369 | -86.67805 | 579 ft | 6 kts | 289° |
| 2026-05-03 22:13 | 36.12383 | -86.67854 | 580 ft | 3 kts | 288° |
| 2026-05-03 22:13 | 36.12384 | -86.67860 | 580 ft | 1 kts | 288° |
| 2026-05-03 22:13 | 36.12389 | -86.67877 | 577 ft | 3 kts | 288° |
| 2026-05-03 22:13 | 36.12396 | -86.67905 | 578 ft | 4 kts | 287° |
| 2026-05-03 22:14 | 36.12406 | -86.67950 | 575 ft | 6 kts | 275° |
| 2026-05-03 22:14 | 36.12376 | -86.67980 | 579 ft | 6 kts | 195° |
| 2026-05-03 22:14 | 36.12337 | -86.67995 | 580 ft | 6 kts | 197° |
| 2026-05-03 22:14 | 36.12292 | -86.68014 | 575 ft | 10 kts | 198° |
| 2026-05-03 22:15 | 36.12075 | -86.68101 | 574 ft | 67 kts | 198° |
| 2026-05-03 22:15 | 36.11405 | -86.68368 | 579 ft | 132 kts | 198° |
| 2026-05-03 22:15 | 36.10414 | -86.68759 | 929 ft | 153 kts | 198° |
| 2026-05-03 22:15 | 36.09382 | -86.69130 | 1692 ft | 159 kts | 199° |
| 2026-05-03 22:16 | 36.08275 | -86.69529 | 2385 ft | 172 kts | 194° |
| 2026-05-03 22:16 | 36.07105 | -86.69224 | 3231 ft | 178 kts | 150° |
| 2026-05-03 22:16 | 36.06393 | -86.68676 | 3727 ft | 182 kts | 155° |
| 2026-05-03 22:16 | 36.04792 | -86.67731 | 4507 ft | 203 kts | 157° |
| 2026-05-03 22:17 | 36.03466 | -86.66969 | 4962 ft | 218 kts | 159° |
| 2026-05-03 22:17 | 36.02010 | -86.66156 | 5215 ft | 241 kts | 158° |
| 2026-05-03 22:17 | 36.00454 | -86.65152 | 5488 ft | 268 kts | 144° |
| 2026-05-03 22:17 | 35.99165 | -86.63416 | 6071 ft | 286 kts | 126° |
| 2026-05-03 22:18 | 35.98042 | -86.61348 | 6710 ft | 292 kts | 120° |
| 2026-05-03 22:18 | 35.97443 | -86.58978 | 7009 ft | 291 kts | 91° |
| 2026-05-03 22:18 | 35.97655 | -86.56512 | 7720 ft | 291 kts | 70° |
| 2026-05-03 22:18 | 35.98391 | -86.54205 | 8686 ft | 289 kts | 64° |
| 2026-05-03 22:19 | 35.99220 | -86.51931 | 9584 ft | 290 kts | 62° |
| 2026-05-03 22:19 | 36.00072 | -86.49651 | 10384 ft | 296 kts | 62° |
| 2026-05-03 22:19 | 36.00974 | -86.47242 | 10642 ft | 321 kts | 62° |
| 2026-05-03 22:19 | 36.01927 | -86.44672 | 10862 ft | 344 kts | 63° |
| 2026-05-03 22:20 | 36.02937 | -86.41917 | 11377 ft | 356 kts | 63° |
| 2026-05-03 22:20 | 36.03957 | -86.39104 | 12139 ft | 360 kts | 63° |
| 2026-05-03 22:20 | 36.04986 | -86.36251 | 12920 ft | 364 kts | 63° |
| 2026-05-03 22:20 | 36.06020 | -86.33376 | 13677 ft | 369 kts | 63° |
| 2026-05-03 22:21 | 36.07061 | -86.30475 | 14375 ft | 373 kts | 63° |
| 2026-05-03 22:21 | 36.08120 | -86.27522 | 15027 ft | 378 kts | 63° |
| 2026-05-03 22:21 | 36.09176 | -86.24571 | 15695 ft | 382 kts | 63° |
| 2026-05-03 22:21 | 36.10255 | -86.21556 | 16343 ft | 387 kts | 62° |
| 2026-05-03 22:22 | 36.11348 | -86.18497 | 16992 ft | 391 kts | 62° |
| 2026-05-03 22:22 | 36.12459 | -86.15386 | 17590 ft | 397 kts | 62° |
| 2026-05-03 22:22 | 36.13582 | -86.12239 | 18201 ft | 402 kts | 62° |
| 2026-05-03 22:22 | 36.14718 | -86.09051 | 18795 ft | 406 kts | 62° |
| 2026-05-03 22:23 | 36.15863 | -86.05833 | 19322 ft | 411 kts | 62° |
| 2026-05-03 22:23 | 36.17008 | -86.02612 | 19826 ft | 416 kts | 62° |
| 2026-05-03 22:23 | 36.18182 | -85.99308 | 20355 ft | 421 kts | 63° |
| 2026-05-03 22:23 | 36.19364 | -85.95974 | 20865 ft | 425 kts | 62° |
| 2026-05-03 22:24 | 36.20561 | -85.92597 | 21356 ft | 430 kts | 63° |
| 2026-05-03 22:24 | 36.21765 | -85.89192 | 21851 ft | 435 kts | 62° |
| 2026-05-03 22:24 | 36.22986 | -85.85740 | 22308 ft | 440 kts | 63° |
| 2026-05-03 22:24 | 36.24218 | -85.82255 | 22777 ft | 444 kts | 63° |
| 2026-05-03 22:25 | 36.25459 | -85.78724 | 23258 ft | 448 kts | 64° |
| 2026-05-03 22:25 | 36.26603 | -85.75094 | 23725 ft | 454 kts | 67° |
| 2026-05-03 22:25 | 36.27647 | -85.71423 | 24109 ft | 458 kts | 68° |
| 2026-05-03 22:25 | 36.28676 | -85.67665 | 24548 ft | 461 kts | 68° |
| 2026-05-03 22:26 | 36.29709 | -85.63887 | 25001 ft | 462 kts | 68° |
| 2026-05-03 22:26 | 36.30757 | -85.60106 | 25419 ft | 465 kts | 68° |
| 2026-05-03 22:26 | 36.31824 | -85.56301 | 25808 ft | 468 kts | 67° |
| 2026-05-03 22:26 | 36.32887 | -85.52533 | 26188 ft | 471 kts | 67° |
| 2026-05-03 22:27 | 36.33621 | -85.49933 | 26471 ft | 472 kts | 67° |
| 2026-05-03 22:27 | 36.35062 | -85.44823 | 26991 ft | 475 kts | 67° |
| 2026-05-03 22:27 | 36.36188 | -85.40949 | 27360 ft | 478 kts | 66° |
| 2026-05-03 22:27 | 36.37389 | -85.37080 | 27626 ft | 482 kts | 65° |
| 2026-05-03 22:28 | 36.38623 | -85.33201 | 27984 ft | 485 kts | 65° |
| 2026-05-03 22:28 | 36.39864 | -85.29302 | 28370 ft | 486 kts | 65° |
| 2026-05-03 22:28 | 36.41103 | -85.25377 | 28747 ft | 489 kts | 65° |
| 2026-05-03 22:28 | 36.42325 | -85.21473 | 29088 ft | 491 kts | 65° |
| 2026-05-03 22:29 | 36.43557 | -85.17505 | 29412 ft | 494 kts | 65° |
| 2026-05-03 22:29 | 36.44793 | -85.13508 | 29740 ft | 496 kts | 65° |
| 2026-05-03 22:29 | 36.45606 | -85.10872 | 29944 ft | 498 kts | 65° |
| 2026-05-03 22:29 | 36.47266 | -85.05487 | 30341 ft | 500 kts | 65° |
| 2026-05-03 22:30 | 36.48090 | -85.02813 | 30522 ft | 501 kts | 65° |
| 2026-05-03 22:30 | 36.49751 | -84.97422 | 30824 ft | 503 kts | 65° |
| 2026-05-03 22:30 | 36.50592 | -84.94736 | 31083 ft | 502 kts | 63° |
| 2026-05-03 22:30 | 36.52528 | -84.89481 | 31579 ft | 498 kts | 59° |
| 2026-05-03 22:31 | 36.54087 | -84.85637 | 31891 ft | 497 kts | 58° |
| 2026-05-03 22:31 | 36.55681 | -84.81803 | 32218 ft | 497 kts | 58° |
| 2026-05-03 22:31 | 36.57248 | -84.78037 | 32588 ft | 496 kts | 58° |
| 2026-05-03 22:31 | 36.58821 | -84.74213 | 32927 ft | 496 kts | 58° |
| 2026-05-03 22:32 | 36.60369 | -84.70400 | 33259 ft | 496 kts | 59° |
| 2026-05-03 22:32 | 36.61910 | -84.66564 | 33603 ft | 495 kts | 59° |
| 2026-05-03 22:32 | 36.63447 | -84.62711 | 33880 ft | 497 kts | 59° |
| 2026-05-03 22:32 | 36.64466 | -84.60149 | 33981 ft | 499 kts | 59° |
| 2026-05-03 22:33 | 36.66528 | -84.54951 | 34308 ft | 500 kts | 59° |
| 2026-05-03 22:33 | 36.67549 | -84.52373 | 34517 ft | 499 kts | 59° |
| 2026-05-03 22:33 | 36.69579 | -84.47236 | 34895 ft | 498 kts | 59° |
| 2026-05-03 22:33 | 36.71109 | -84.43367 | 35111 ft | 499 kts | 59° |
| 2026-05-03 22:34 | 36.72648 | -84.39473 | 35302 ft | 500 kts | 59° |
| 2026-05-03 22:34 | 36.73668 | -84.36890 | 35437 ft | 500 kts | 59° |
| 2026-05-03 22:34 | 36.75205 | -84.32995 | 35700 ft | 500 kts | 60° |
| 2026-05-03 22:34 | 36.76734 | -84.29111 | 35918 ft | 500 kts | 60° |
| 2026-05-03 22:35 | 36.78271 | -84.25206 | 36070 ft | 502 kts | 60° |
| 2026-05-03 22:35 | 36.79811 | -84.21290 | 36223 ft | 504 kts | 60° |
| 2026-05-03 22:35 | 36.81356 | -84.17355 | 36455 ft | 504 kts | 60° |
| 2026-05-03 22:35 | 36.82891 | -84.13436 | 36718 ft | 503 kts | 60° |
| 2026-05-03 22:36 | 36.84084 | -84.10389 | 36904 ft | 503 kts | 60° |
| 2026-05-03 22:36 | 36.85645 | -84.06397 | 37093 ft | 502 kts | 60° |
| 2026-05-03 22:36 | 36.87175 | -84.02478 | 37079 ft | 502 kts | 60° |
| 2026-05-03 22:37 | 36.90235 | -83.94631 | 37100 ft | 503 kts | 60° |
| 2026-05-03 22:37 | 36.93278 | -83.86812 | 37098 ft | 505 kts | 60° |
| 2026-05-03 22:38 | 36.96358 | -83.78874 | 37105 ft | 508 kts | 60° |
| 2026-05-03 22:38 | 36.99447 | -83.70893 | 37112 ft | 509 kts | 61° |
| 2026-05-03 22:39 | 37.02514 | -83.62941 | 37094 ft | 511 kts | 60° |
| 2026-05-03 22:39 | 37.05604 | -83.54918 | 37106 ft | 511 kts | 61° |
| 2026-05-03 22:40 | 37.08681 | -83.46905 | 37103 ft | 511 kts | 60° |
| 2026-05-03 22:40 | 37.11759 | -83.38869 | 37103 ft | 510 kts | 60° |
| 2026-05-03 22:41 | 37.14826 | -83.30843 | 37104 ft | 509 kts | 61° |
| 2026-05-03 22:41 | 37.17856 | -83.22890 | 37099 ft | 509 kts | 61° |
| 2026-05-03 22:42 | 37.20906 | -83.14863 | 37092 ft | 508 kts | 61° |
| 2026-05-03 22:42 | 37.23944 | -83.06851 | 37095 ft | 508 kts | 61° |
| 2026-05-03 22:43 | 37.26799 | -82.98713 | 37077 ft | 510 kts | 66° |
| 2026-05-03 22:43 | 37.29154 | -82.90315 | 37093 ft | 511 kts | 68° |
| 2026-05-03 22:44 | 37.31432 | -82.81913 | 37089 ft | 510 kts | 68° |
| 2026-05-03 22:44 | 37.33784 | -82.73475 | 37076 ft | 511 kts | 68° |
| 2026-05-03 22:45 | 37.36165 | -82.65043 | 37085 ft | 512 kts | 68° |
| 2026-05-03 22:45 | 37.38529 | -82.56665 | 37090 ft | 513 kts | 68° |
| 2026-05-03 22:46 | 37.40909 | -82.48187 | 37087 ft | 515 kts | 68° |
| 2026-05-03 22:46 | 37.43288 | -82.39678 | 37097 ft | 517 kts | 68° |
| 2026-05-03 22:47 | 37.45674 | -82.31107 | 37088 ft | 518 kts | 68° |
| 2026-05-03 22:47 | 37.48051 | -82.22549 | 37086 ft | 519 kts | 68° |
| 2026-05-03 22:48 | 37.50417 | -82.14008 | 37083 ft | 518 kts | 68° |
| 2026-05-03 22:48 | 37.52786 | -82.05443 | 37076 ft | 516 kts | 68° |
| 2026-05-03 22:49 | 37.55147 | -81.96900 | 37081 ft | 516 kts | 68° |
| 2026-05-03 22:49 | 37.57502 | -81.88350 | 37086 ft | 514 kts | 68° |
| 2026-05-03 22:50 | 37.59826 | -81.79882 | 37085 ft | 513 kts | 68° |
| 2026-05-03 22:50 | 37.62120 | -81.71345 | 37089 ft | 513 kts | 68° |
| 2026-05-03 22:51 | 37.64425 | -81.62889 | 37080 ft | 513 kts | 68° |
| 2026-05-03 22:51 | 37.66751 | -81.54332 | 37090 ft | 514 kts | 68° |
| 2026-05-03 22:52 | 37.69040 | -81.45848 | 37095 ft | 515 kts | 68° |
| 2026-05-03 22:52 | 37.71351 | -81.37238 | 37075 ft | 516 kts | 68° |
| 2026-05-03 22:53 | 37.73300 | -81.28490 | 37069 ft | 520 kts | 81° |
| 2026-05-03 22:53 | 37.74125 | -81.19426 | 37076 ft | 521 kts | 83° |
| 2026-05-03 22:54 | 37.74860 | -81.10343 | 37074 ft | 522 kts | 83° |
| 2026-05-03 22:54 | 37.75658 | -81.01202 | 37067 ft | 523 kts | 82° |
| 2026-05-03 22:55 | 37.76492 | -80.92076 | 37079 ft | 523 kts | 82° |
| 2026-05-03 22:55 | 37.77332 | -80.82920 | 37087 ft | 523 kts | 83° |
| 2026-05-03 22:56 | 37.78155 | -80.73828 | 37093 ft | 524 kts | 83° |
| 2026-05-03 22:56 | 37.78974 | -80.64656 | 37097 ft | 525 kts | 83° |
| 2026-05-03 22:57 | 37.79788 | -80.55450 | 37074 ft | 525 kts | 83° |
| 2026-05-03 22:57 | 37.80588 | -80.46322 | 37119 ft | 525 kts | 83° |
| 2026-05-03 22:58 | 37.81388 | -80.37116 | 37074 ft | 526 kts | 83° |
| 2026-05-03 22:58 | 37.82176 | -80.27968 | 37067 ft | 526 kts | 83° |
| 2026-05-03 22:59 | 37.82957 | -80.18812 | 37085 ft | 525 kts | 83° |
| 2026-05-03 22:59 | 37.83734 | -80.09619 | 37069 ft | 525 kts | 83° |
| 2026-05-03 23:00 | 37.84504 | -80.00422 | 37063 ft | 525 kts | 83° |
| 2026-05-03 23:00 | 37.85268 | -79.91210 | 37055 ft | 526 kts | 83° |
| 2026-05-03 23:01 | 37.86021 | -79.82040 | 37059 ft | 526 kts | 83° |
| 2026-05-03 23:01 | 37.86760 | -79.72803 | 37045 ft | 527 kts | 85° |
| 2026-05-03 23:02 | 37.87133 | -79.63525 | 37037 ft | 528 kts | 88° |
| 2026-05-03 23:02 | 37.87355 | -79.54204 | 37017 ft | 530 kts | 88° |
| 2026-05-03 23:03 | 37.87628 | -79.44861 | 37020 ft | 531 kts | 88° |
| 2026-05-03 23:03 | 37.87923 | -79.35565 | 37015 ft | 531 kts | 88° |
| 2026-05-03 23:04 | 37.88613 | -79.26229 | 37038 ft | 531 kts | 81° |
| 2026-05-03 23:04 | 37.89784 | -79.16988 | 37042 ft | 532 kts | 79° |
| 2026-05-03 23:05 | 37.90961 | -79.07776 | 37039 ft | 532 kts | 80° |
| 2026-05-03 23:05 | 37.92066 | -78.98507 | 37046 ft | 532 kts | 81° |
| 2026-05-03 23:06 | 37.93136 | -78.89208 | 37041 ft | 533 kts | 81° |
| 2026-05-03 23:06 | 37.94193 | -78.79928 | 37052 ft | 531 kts | 81° |
| 2026-05-03 23:07 | 37.95242 | -78.70713 | 37047 ft | 532 kts | 81° |
| 2026-05-03 23:07 | 37.96294 | -78.61422 | 37037 ft | 533 kts | 81° |
| 2026-05-03 23:08 | 37.97340 | -78.52113 | 37024 ft | 533 kts | 81° |
| 2026-05-03 23:08 | 37.98380 | -78.42785 | 37029 ft | 534 kts | 81° |
| 2026-05-03 23:09 | 37.99409 | -78.33492 | 37030 ft | 535 kts | 81° |
| 2026-05-03 23:09 | 38.00438 | -78.24130 | 37030 ft | 536 kts | 82° |
| 2026-05-03 23:10 | 38.01752 | -78.14909 | 37010 ft | 532 kts | 65° |
| 2026-05-03 23:10 | 38.03423 | -78.10752 | 37060 ft | 523 kts | 52° |
| 2026-05-03 23:10 | 38.05395 | -78.06859 | 37080 ft | 523 kts | 51° |
| 2026-05-03 23:11 | 38.09415 | -77.99135 | 37035 ft | 524 kts | 51° |
| 2026-05-03 23:11 | 38.13357 | -77.91401 | 37021 ft | 525 kts | 52° |
| 2026-05-03 23:12 | 38.17269 | -77.83553 | 37036 ft | 525 kts | 52° |
| 2026-05-03 23:12 | 38.21176 | -77.75659 | 37033 ft | 526 kts | 52° |
| 2026-05-03 23:13 | 38.25044 | -77.67838 | 37076 ft | 526 kts | 52° |
| 2026-05-03 23:13 | 38.28943 | -77.59944 | 37038 ft | 526 kts | 52° |
| 2026-05-03 23:14 | 38.32829 | -77.52058 | 37022 ft | 525 kts | 52° |
| 2026-05-03 23:14 | 38.36704 | -77.44174 | 37040 ft | 524 kts | 52° |
| 2026-05-03 23:15 | 38.40554 | -77.36324 | 37044 ft | 523 kts | 53° |
| 2026-05-03 23:15 | 38.44382 | -77.28503 | 37078 ft | 522 kts | 53° |
| 2026-05-03 23:16 | 38.48227 | -77.20632 | 37044 ft | 522 kts | 53° |
| 2026-05-03 23:16 | 38.52062 | -77.12759 | 37043 ft | 521 kts | 53° |
| 2026-05-03 23:17 | 38.55863 | -77.04937 | 37046 ft | 520 kts | 53° |
| 2026-05-03 23:17 | 38.59686 | -76.97050 | 37052 ft | 520 kts | 53° |
| 2026-05-03 23:18 | 38.63493 | -76.89177 | 37079 ft | 520 kts | 53° |
| 2026-05-03 23:18 | 38.67275 | -76.81338 | 37029 ft | 521 kts | 53° |
| 2026-05-03 23:18 | 38.69180 | -76.77384 | 36847 ft | 524 kts | 53° |
| 2026-05-03 23:19 | 38.70944 | -76.73255 | 36311 ft | 532 kts | 65° |
| 2026-05-03 23:19 | 38.72016 | -76.68737 | 36132 ft | 529 kts | 72° |
| 2026-05-03 23:19 | 38.72922 | -76.64154 | 35884 ft | 530 kts | 73° |
| 2026-05-03 23:19 | 38.73799 | -76.59563 | 35646 ft | 531 kts | 73° |
| 2026-05-03 23:20 | 38.74676 | -76.55031 | 35406 ft | 532 kts | 72° |
| 2026-05-03 23:20 | 38.75593 | -76.50426 | 34819 ft | 532 kts | 72° |
| 2026-05-03 23:20 | 38.76531 | -76.45830 | 34221 ft | 533 kts | 71° |
| 2026-05-03 23:20 | 38.77477 | -76.41267 | 33461 ft | 535 kts | 71° |
| 2026-05-03 23:21 | 38.78445 | -76.36619 | 32795 ft | 535 kts | 71° |
| 2026-05-03 23:21 | 38.79386 | -76.32087 | 32087 ft | 536 kts | 71° |
| 2026-05-03 23:21 | 38.80340 | -76.27473 | 31356 ft | 536 kts | 71° |
| 2026-05-03 23:21 | 38.81293 | -76.22841 | 30660 ft | 536 kts | 71° |
| 2026-05-03 23:22 | 38.83173 | -76.13646 | 29461 ft | 528 kts | 71° |
| 2026-05-03 23:22 | 38.83788 | -76.10632 | 29071 ft | 524 kts | 71° |
| 2026-05-03 23:22 | 38.84706 | -76.06126 | 28541 ft | 517 kts | 71° |
| 2026-05-03 23:23 | 38.85902 | -76.00243 | 27812 ft | 510 kts | 71° |
| 2026-05-03 23:23 | 38.86503 | -75.97269 | 27455 ft | 506 kts | 71° |
| 2026-05-03 23:23 | 38.87368 | -75.92978 | 26967 ft | 500 kts | 71° |
| 2026-05-03 23:23 | 38.88244 | -75.88659 | 26445 ft | 494 kts | 69° |
| 2026-05-03 23:24 | 38.89590 | -75.84692 | 25907 ft | 475 kts | 50° |
| 2026-05-03 23:24 | 38.91609 | -75.81453 | 25427 ft | 454 kts | 35° |
| 2026-05-03 23:24 | 38.93999 | -75.79000 | 24983 ft | 439 kts | 27° |
| 2026-05-03 23:24 | 38.96495 | -75.76750 | 24451 ft | 436 kts | 27° |
| 2026-05-03 23:25 | 38.98971 | -75.74514 | 23952 ft | 433 kts | 28° |
| 2026-05-03 23:25 | 39.01422 | -75.72242 | 23436 ft | 440 kts | 28° |
| 2026-05-03 23:25 | 39.03950 | -75.69874 | 22866 ft | 454 kts | 28° |
| 2026-05-03 23:25 | 39.06686 | -75.67961 | 22267 ft | 442 kts | 11° |
| 2026-05-03 23:26 | 39.09631 | -75.67233 | 21740 ft | 424 kts | 357° |
| 2026-05-03 23:26 | 39.12478 | -75.66976 | 21211 ft | 416 kts | 356° |
| 2026-05-03 23:26 | 39.15377 | -75.66726 | 20708 ft | 409 kts | 357° |
| 2026-05-03 23:26 | 39.18190 | -75.66461 | 20198 ft | 403 kts | 358° |
| 2026-05-03 23:27 | 39.20965 | -75.66174 | 19697 ft | 397 kts | 358° |
| 2026-05-03 23:27 | 39.23710 | -75.65876 | 19208 ft | 392 kts | 358° |
| 2026-05-03 23:27 | 39.26406 | -75.65577 | 18727 ft | 387 kts | 359° |
| 2026-05-03 23:27 | 39.29047 | -75.64757 | 18212 ft | 398 kts | 18° |
| 2026-05-03 23:28 | 39.31409 | -75.62926 | 17735 ft | 401 kts | 28° |
| 2026-05-03 23:28 | 39.33681 | -75.60860 | 17220 ft | 397 kts | 29° |
| 2026-05-03 23:28 | 39.35935 | -75.58838 | 16764 ft | 391 kts | 28° |
| 2026-05-03 23:28 | 39.38098 | -75.56702 | 16256 ft | 394 kts | 40° |
| 2026-05-03 23:29 | 39.39667 | -75.53764 | 15807 ft | 401 kts | 61° |
| 2026-05-03 23:29 | 39.40686 | -75.50451 | 15392 ft | 398 kts | 65° |
| 2026-05-03 23:29 | 39.41641 | -75.47102 | 14921 ft | 395 kts | 66° |
| 2026-05-03 23:29 | 39.42590 | -75.43789 | 14627 ft | 387 kts | 65° |
| 2026-05-03 23:30 | 39.43531 | -75.40574 | 14355 ft | 379 kts | 65° |
| 2026-05-03 23:30 | 39.44475 | -75.37407 | 13939 ft | 376 kts | 64° |
| 2026-05-03 23:30 | 39.45420 | -75.34252 | 13505 ft | 373 kts | 64° |
| 2026-05-03 23:30 | 39.46573 | -75.31383 | 13358 ft | 353 kts | 46° |
| 2026-05-03 23:31 | 39.48281 | -75.29264 | 13296 ft | 329 kts | 29° |
| 2026-05-03 23:31 | 39.50134 | -75.27639 | 13221 ft | 316 kts | 26° |
| 2026-05-03 23:31 | 39.51943 | -75.26088 | 13126 ft | 307 kts | 29° |
| 2026-05-03 23:31 | 39.53598 | -75.24440 | 12903 ft | 300 kts | 32° |
| 2026-05-03 23:32 | 39.55208 | -75.22744 | 12500 ft | 297 kts | 33° |
| 2026-05-03 23:32 | 39.56807 | -75.21050 | 12042 ft | 295 kts | 33° |
| 2026-05-03 23:32 | 39.58393 | -75.19377 | 11589 ft | 291 kts | 33° |
| 2026-05-03 23:32 | 39.59928 | -75.17767 | 11135 ft | 287 kts | 33° |
| 2026-05-03 23:33 | 39.61462 | -75.16166 | 10702 ft | 284 kts | 32° |
| 2026-05-03 23:33 | 39.62990 | -75.14576 | 10268 ft | 280 kts | 33° |
| 2026-05-03 23:33 | 39.64512 | -75.12995 | 9833 ft | 276 kts | 32° |
| 2026-05-03 23:33 | 39.65998 | -75.11453 | 9304 ft | 275 kts | 32° |
| 2026-05-03 23:34 | 39.67497 | -75.09901 | 8739 ft | 275 kts | 33° |
| 2026-05-03 23:34 | 39.68999 | -75.08344 | 8180 ft | 276 kts | 33° |
| 2026-05-03 23:34 | 39.70493 | -75.06793 | 7676 ft | 274 kts | 33° |
| 2026-05-03 23:34 | 39.71984 | -75.05245 | 7192 ft | 273 kts | 32° |
| 2026-05-03 23:35 | 39.73450 | -75.03722 | 6732 ft | 272 kts | 32° |
| 2026-05-03 23:35 | 39.74918 | -75.02195 | 6257 ft | 271 kts | 32° |
| 2026-05-03 23:35 | 39.76394 | -75.00662 | 5738 ft | 271 kts | 33° |
| 2026-05-03 23:35 | 39.77870 | -74.99128 | 5230 ft | 270 kts | 33° |
| 2026-05-03 23:36 | 39.79307 | -74.97632 | 4737 ft | 269 kts | 34° |
| 2026-05-03 23:36 | 39.80767 | -74.96110 | 4282 ft | 267 kts | 34° |
| 2026-05-03 23:36 | 39.82219 | -74.94597 | 3815 ft | 266 kts | 34° |
| 2026-05-03 23:36 | 39.83591 | -74.93012 | 3588 ft | 255 kts | 36° |
| 2026-05-03 23:37 | 39.84867 | -74.91547 | 3456 ft | 241 kts | 36° |
| 2026-05-03 23:37 | 39.86274 | -74.90536 | 3156 ft | 226 kts | 5° |
| 2026-05-03 23:37 | 39.87798 | -74.90522 | 3058 ft | 217 kts | 349° |
| 2026-05-03 23:37 | 39.89278 | -74.90741 | 3022 ft | 210 kts | 348° |
| 2026-05-03 23:38 | 39.90689 | -74.90997 | 2970 ft | 197 kts | 341° |
| 2026-05-03 23:38 | 39.91797 | -74.91905 | 2987 ft | 187 kts | 304° |
| 2026-05-03 23:38 | 39.92210 | -74.93495 | 3006 ft | 188 kts | 276° |
| 2026-05-03 23:38 | 39.92266 | -74.95196 | 2982 ft | 189 kts | 274° |
| 2026-05-03 23:39 | 39.92289 | -74.96848 | 2977 ft | 177 kts | 273° |
| 2026-05-03 23:39 | 39.92244 | -74.98407 | 2977 ft | 169 kts | 264° |
| 2026-05-03 23:39 | 39.92012 | -74.99849 | 2984 ft | 170 kts | 260° |
| 2026-05-03 23:39 | 39.91715 | -75.01387 | 3002 ft | 169 kts | 260° |
| 2026-05-03 23:40 | 39.91423 | -75.02846 | 2971 ft | 163 kts | 259° |
| 2026-05-03 23:40 | 39.91137 | -75.04272 | 2825 ft | 163 kts | 259° |
| 2026-05-03 23:40 | 39.90850 | -75.05694 | 2619 ft | 161 kts | 259° |
| 2026-05-03 23:40 | 39.90572 | -75.07074 | 2406 ft | 152 kts | 259° |
| 2026-05-03 23:41 | 39.90310 | -75.08371 | 2186 ft | 146 kts | 259° |
| 2026-05-03 23:41 | 39.90056 | -75.09638 | 2013 ft | 145 kts | 259° |
| 2026-05-03 23:41 | 39.89799 | -75.10933 | 1804 ft | 151 kts | 258° |
| 2026-05-03 23:41 | 39.89544 | -75.12203 | 1627 ft | 150 kts | 258° |
| 2026-05-03 23:42 | 39.89286 | -75.13502 | 1468 ft | 141 kts | 257° |
| 2026-05-03 23:42 | 39.89042 | -75.14709 | 1269 ft | 137 kts | 258° |
| 2026-05-03 23:42 | 39.88797 | -75.15885 | 1071 ft | 137 kts | 259° |
| 2026-05-03 23:42 | 39.88564 | -75.17090 | 875 ft | 138 kts | 255° |
| 2026-05-03 23:43 | 39.88318 | -75.18315 | 684 ft | 139 kts | 256° |
| 2026-05-03 23:43 | 39.88076 | -75.19505 | 504 ft | 135 kts | 255° |
| 2026-05-03 23:43 | 39.87830 | -75.20717 | 340 ft | 138 kts | 255° |
| 2026-05-03 23:43 | 39.87606 | -75.21872 | 157 ft | 129 kts | 254° |
| 2026-05-03 23:44 | 39.87391 | -75.22956 | 26 ft | 115 kts | 256° |
| 2026-05-03 23:44 | 39.87228 | -75.23773 | 29 ft | 72 kts | 255° |
| 2026-05-03 23:44 | 39.87152 | -75.24225 | 24 ft | 33 kts | 275° |
| 2026-05-03 23:44 | 39.87185 | -75.24414 | 25 ft | 14 kts | 284° |
| 2026-05-03 23:45 | 39.87199 | -75.24488 | 24 ft | 0 kts | 283° |
| 2026-05-03 23:46 | 39.87205 | -75.24509 | 29 ft | 7 kts | 297° |
| 2026-05-03 23:46 | 39.87250 | -75.24520 | 26 ft | 7 kts | 24° |
| 2026-05-03 23:46 | 39.87277 | -75.24457 | 28 ft | 9 kts | 77° |
| 2026-05-03 23:47 | 39.87292 | -75.24375 | 27 ft | 9 kts | 75° |
| 2026-05-03 23:47 | 39.87309 | -75.24295 | 26 ft | 9 kts | 75° |
| 2026-05-03 23:47 | 39.87327 | -75.24202 | 24 ft | 13 kts | 75° |
| 2026-05-03 23:47 | 39.87353 | -75.24068 | 24 ft | 17 kts | 76° |
| 2026-05-03 23:48 | 39.87385 | -75.23915 | 24 ft | 17 kts | 72° |
| 2026-05-03 23:48 | 39.87420 | -75.23768 | 28 ft | 17 kts | 69° |
| 2026-05-03 23:48 | 39.87486 | -75.23657 | 26 ft | 15 kts | 46° |
| 2026-05-03 23:48 | 39.87562 | -75.23591 | 29 ft | 11 kts | 2° |
| 2026-05-03 23:49 | 39.87611 | -75.23641 | 25 ft | 9 kts | 302° |
| 2026-05-03 23:49 | 39.87643 | -75.23708 | 26 ft | 9 kts | 301° |
| 2026-05-03 23:49 | 39.87675 | -75.23741 | 26 ft | 5 kts | 2° |
| 2026-05-03 23:49 | 39.87706 | -75.23720 | 27 ft | 5 kts | 31° |
| 2026-05-03 23:50 | 39.87720 | -75.23710 | 26 ft | 0 kts | 31° |